Time;durP1;ratioP1;P1;durP2;ratioP2;P2;SDS_P1;SDS_P2;PMS_P1;PMS_P2;Temp;Humidity;BMP_temperature;BMP_pressure;BME280_temperature;BME280_humidity;BME280_pressure;Samples;Min_cycle;Max_cycle;Signal;HPM_P1;HPM_P2
2023/09/09 00:01:02;;;;;;;5.73;2.43;;;;;;;;;;5099062;28;20262;-72
2023/09/09 00:03:29;;;;;;;3.03;2.60;;;;;;;;;;5100637;28;20203;-72
2023/09/09 00:05:56;;;;;;;3.03;2.73;;;;;;;;;;5099432;28;20211;-72
2023/09/09 00:08:22;;;;;;;2.77;2.30;;;;;;;;;;5112842;28;20234;-72
2023/09/09 00:10:49;;;;;;;5.93;3.07;;;;;;;;;;5097973;28;20301;-72
2023/09/09 00:13:17;;;;;;;2.87;2.30;;;;;;;;;;5100939;28;20622;-72
2023/09/09 00:15:43;;;;;;;3.40;2.30;;;;;;;;;;5097281;28;20204;-73
2023/09/09 00:18:11;;;;;;;3.20;2.73;;;;;;;;;;5092683;28;20207;-71
2023/09/09 00:20:40;;;;;;;4.60;3.37;;;;;;;;;;5093906;28;20228;-72
2023/09/09 00:23:08;;;;;;;5.77;2.77;;;;;;;;;;5092289;28;20212;-71
2023/09/09 00:25:35;;;;;;;3.40;2.60;;;;;;;;;;5106635;28;20211;-72
2023/09/09 00:28:02;;;;;;;4.37;2.80;;;;;;;;;;5112058;28;20194;-72
2023/09/09 00:30:29;;;;;;;6.27;2.97;;;;;;;;;;5099079;28;20640;-72
2023/09/09 00:32:55;;;;;;;5.47;2.73;;;;;;;;;;5104621;28;20206;-71
2023/09/09 00:35:24;;;;;;;4.43;2.40;;;;;;;;;;5092387;28;20202;-71
2023/09/09 00:37:50;;;;;;;7.73;2.97;;;;;;;;;;5100443;28;20201;-72
2023/09/09 00:40:17;;;;;;;2.83;2.63;;;;;;;;;;5098587;28;20234;-72
2023/09/09 00:42:44;;;;;;;4.33;2.90;;;;;;;;;;5112297;28;20648;-71
2023/09/09 00:45:11;;;;;;;2.70;2.33;;;;;;;;;;5110577;28;20210;-71
2023/09/09 00:47:38;;;;;;;13.40;3.57;;;;;;;;;;5091771;28;20211;-71
2023/09/09 00:50:10;;;;;;;7.77;2.77;;;;;;;;;;5093822;28;20208;-71
2023/09/09 00:52:38;;;;;;;4.60;2.87;;;;;;;;;;5112058;28;20672;-71
2023/09/09 00:55:06;;;;;;;5.73;3.10;;;;;;;;;;5095356;28;20611;-71
2023/09/09 00:57:33;;;;;;;3.20;2.87;;;;;;;;;;5091548;28;20209;-72
2023/09/09 01:00:03;;;;;;;4.50;2.80;;;;;;;;;;5105111;28;20272;-72
2023/09/09 01:02:30;;;;;;;5.30;2.90;;;;;;;;;;5102335;28;20199;-72
2023/09/09 01:04:59;;;;;;;3.37;2.43;;;;;;;;;;5097941;28;20198;-71
2023/09/09 01:07:26;;;;;;;4.87;3.03;;;;;;;;;;5099928;28;20765;-71
2023/09/09 01:09:54;;;;;;;4.27;2.90;;;;;;;;;;5104591;28;20194;-71
2023/09/09 01:12:24;;;;;;;3.00;2.70;;;;;;;;;;5091269;28;20208;-71
2023/09/09 01:14:51;;;;;;;4.23;2.80;;;;;;;;;;5091247;28;20704;-71
2023/09/09 01:17:18;;;;;;;4.53;2.37;;;;;;;;;;5103846;28;20210;-72
2023/09/09 01:19:44;;;;;;;5.93;3.20;;;;;;;;;;5105062;28;20221;-72
2023/09/09 01:22:17;;;;;;;4.80;2.93;;;;;;;;;;5105298;28;20274;-71
2023/09/09 01:24:45;;;;;;;5.93;3.10;;;;;;;;;;5091635;28;20262;-72
2023/09/09 01:27:12;;;;;;;4.03;2.77;;;;;;;;;;5100185;28;20198;-72
2023/09/09 01:29:38;;;;;;;3.57;2.87;;;;;;;;;;5103200;28;20212;-71
2023/09/09 01:32:06;;;;;;;4.83;3.10;;;;;;;;;;5105922;28;20198;-72
2023/09/09 01:34:33;;;;;;;8.10;3.03;;;;;;;;;;5103248;28;20260;-72
2023/09/09 01:37:00;;;;;;;3.33;3.03;;;;;;;;;;5111092;28;20212;-71
2023/09/09 01:39:28;;;;;;;6.83;4.20;;;;;;;;;;5111463;28;20229;-72
2023/09/09 01:41:55;;;;;;;5.47;4.23;;;;;;;;;;5105195;28;20195;-71
2023/09/09 01:44:22;;;;;;;5.00;4.20;;;;;;;;;;5090836;28;20207;-72
2023/09/09 01:46:48;;;;;;;5.77;3.90;;;;;;;;;;5091072;28;20194;-72
2023/09/09 01:49:15;;;;;;;4.33;3.80;;;;;;;;;;5091520;28;20652;-72
2023/09/09 01:51:42;;;;;;;4.83;3.53;;;;;;;;;;5096710;28;20201;-71
2023/09/09 01:54:09;;;;;;;6.57;3.77;;;;;;;;;;5111510;28;20546;-72
2023/09/09 01:56:37;;;;;;;3.73;2.97;;;;;;;;;;5104289;28;20201;-71
2023/09/09 01:59:04;;;;;;;3.73;3.07;;;;;;;;;;5090677;28;20208;-72
2023/09/09 02:01:30;;;;;;;15.63;4.37;;;;;;;;;;5104292;28;20206;-71
2023/09/09 02:03:57;;;;;;;4.47;3.30;;;;;;;;;;5090645;28;20210;-71
2023/09/09 02:06:24;;;;;;;8.43;3.23;;;;;;;;;;5090412;28;20226;-71
2023/09/09 02:08:50;;;;;;;5.93;3.20;;;;;;;;;;5105351;28;20215;-72
2023/09/09 02:11:17;;;;;;;7.23;3.37;;;;;;;;;;5103158;28;20240;-71
2023/09/09 02:13:45;;;;;;;4.97;3.03;;;;;;;;;;5105832;28;20201;-72
2023/09/09 02:16:12;;;;;;;5.97;3.50;;;;;;;;;;5102766;28;20246;-71
2023/09/09 02:18:39;;;;;;;3.73;3.40;;;;;;;;;;5095363;28;20275;-71
2023/09/09 02:21:06;;;;;;;3.50;2.83;;;;;;;;;;5101405;28;20224;-71
2023/09/09 02:23:33;;;;;;;7.50;4.07;;;;;;;;;;5103489;28;20635;-71
2023/09/09 02:26:00;;;;;;;3.50;3.20;;;;;;;;;;5094754;28;20577;-71
2023/09/09 02:28:27;;;;;;;5.63;3.50;;;;;;;;;;5094414;28;20206;-71
2023/09/09 02:30:55;;;;;;;3.60;3.20;;;;;;;;;;5094582;28;20265;-71
2023/09/09 02:33:22;;;;;;;3.93;3.53;;;;;;;;;;5107383;28;20670;-72
2023/09/09 02:35:49;;;;;;;5.87;3.20;;;;;;;;;;5095182;28;20563;-71
2023/09/09 02:38:15;;;;;;;4.73;3.63;;;;;;;;;;5107751;28;20201;-71
2023/09/09 02:40:42;;;;;;;3.97;3.53;;;;;;;;;;5108356;28;20220;-71
2023/09/09 02:43:10;;;;;;;4.60;3.73;;;;;;;;;;5094518;28;20207;-71
2023/09/09 02:45:38;;;;;;;5.97;4.00;;;;;;;;;;5094593;28;20208;-71
2023/09/09 02:48:07;;;;;;;5.13;3.33;;;;;;;;;;5094272;28;20208;-72
2023/09/09 02:50:34;;;;;;;5.87;3.53;;;;;;;;;;5106925;28;20208;-71
2023/09/09 02:53:01;;;;;;;3.90;3.60;;;;;;;;;;5094159;28;20299;-71
2023/09/09 02:55:28;;;;;;;4.37;3.50;;;;;;;;;;5102066;28;20298;-71
2023/09/09 02:57:55;;;;;;;3.97;3.63;;;;;;;;;;5100000;28;20200;-71
2023/09/09 03:00:22;;;;;;;3.83;3.40;;;;;;;;;;5106438;28;20770;-72
2023/09/09 03:02:49;;;;;;;4.93;3.83;;;;;;;;;;5094027;28;20285;-71
2023/09/09 03:05:18;;;;;;;7.93;4.03;;;;;;;;;;5102685;28;20216;-71
2023/09/09 03:07:45;;;;;;;4.23;3.60;;;;;;;;;;5100495;28;20200;-71
2023/09/09 03:10:12;;;;;;;4.13;3.43;;;;;;;;;;5104600;28;20200;-71
2023/09/09 03:12:39;;;;;;;4.10;3.70;;;;;;;;;;5094889;28;20204;-71
2023/09/09 03:15:07;;;;;;;5.87;3.40;;;;;;;;;;5103402;28;20204;-71
2023/09/09 03:17:34;;;;;;;4.63;3.33;;;;;;;;;;5105489;28;20200;-71
2023/09/09 03:20:01;;;;;;;9.03;3.33;;;;;;;;;;5092421;28;20235;-72
2023/09/09 03:22:29;;;;;;;6.27;3.73;;;;;;;;;;5094263;28;20211;-72
2023/09/09 03:24:56;;;;;;;3.77;2.87;;;;;;;;;;5102829;28;20201;-72
2023/09/09 03:27:22;;;;;;;4.63;3.50;;;;;;;;;;5111410;28;20200;-72
2023/09/09 03:29:49;;;;;;;3.07;2.83;;;;;;;;;;5110972;28;20331;-72
2023/09/09 03:32:16;;;;;;;3.60;3.17;;;;;;;;;;5103056;28;20682;-72
2023/09/09 03:34:44;;;;;;;4.47;3.27;;;;;;;;;;5094112;28;20200;-72
2023/09/09 03:37:10;;;;;;;3.53;3.13;;;;;;;;;;5103363;28;21070;-72
2023/09/09 03:39:39;;;;;;;4.77;3.40;;;;;;;;;;5092378;28;20211;-72
2023/09/09 03:42:06;;;;;;;3.50;2.60;;;;;;;;;;5101723;28;20286;-73
2023/09/09 03:44:33;;;;;;;6.47;3.87;;;;;;;;;;5095888;28;20196;-72
2023/09/09 03:46:59;;;;;;;6.30;3.33;;;;;;;;;;5092277;28;20655;-72
2023/09/09 03:49:26;;;;;;;5.73;3.60;;;;;;;;;;5091795;28;20200;-72
2023/09/09 03:51:53;;;;;;;8.73;3.67;;;;;;;;;;5102399;28;20287;-72
2023/09/09 03:54:20;;;;;;;4.33;3.20;;;;;;;;;;5111689;28;20187;-72
2023/09/09 03:56:49;;;;;;;6.27;2.80;;;;;;;;;;5111755;28;20204;-72
2023/09/09 03:59:16;;;;;;;3.17;2.87;;;;;;;;;;5107852;28;20291;-72
2023/09/09 04:01:42;;;;;;;5.03;3.33;;;;;;;;;;5102907;28;20227;-72
2023/09/09 04:04:09;;;;;;;3.33;3.03;;;;;;;;;;5094293;28;20233;-72
2023/09/09 04:06:36;;;;;;;3.53;2.83;;;;;;;;;;5091490;28;20624;-73
2023/09/09 04:09:03;;;;;;;6.00;3.20;;;;;;;;;;5105304;28;20196;-71
2023/09/09 04:11:29;;;;;;;3.38;3.05;;;;;;;;;;5062548;28;1171715;-70
2023/09/09 04:13:59;;;;;;;4.27;2.70;;;;;;;;;;5094371;28;20290;-71
2023/09/09 04:16:26;;;;;;;3.43;3.07;;;;;;;;;;5104406;28;20196;-71
2023/09/09 04:18:52;;;;;;;3.87;3.50;;;;;;;;;;5112399;28;20689;-70
2023/09/09 04:21:19;;;;;;;5.57;3.80;;;;;;;;;;5092748;28;20733;-70
2023/09/09 04:23:46;;;;;;;4.50;3.43;;;;;;;;;;5092242;28;20212;-71
2023/09/09 04:26:13;;;;;;;4.00;3.10;;;;;;;;;;5092378;28;20216;-71
2023/09/09 04:28:40;;;;;;;3.93;2.97;;;;;;;;;;5092613;28;20200;-70
2023/09/09 04:31:08;;;;;;;4.83;3.23;;;;;;;;;;5098741;28;20669;-71
2023/09/09 04:33:35;;;;;;;3.93;3.37;;;;;;;;;;5098720;28;20261;-71
2023/09/09 04:36:02;;;;;;;6.73;3.00;;;;;;;;;;5099300;28;20211;-71
2023/09/09 04:38:29;;;;;;;5.03;3.37;;;;;;;;;;5099122;28;20212;-71
2023/09/09 04:40:56;;;;;;;4.43;2.80;;;;;;;;;;5103751;28;20226;-70
2023/09/09 04:43:23;;;;;;;6.67;3.40;;;;;;;;;;5105898;28;20207;-72
2023/09/09 04:45:50;;;;;;;3.10;2.80;;;;;;;;;;5105160;28;20246;-70
2023/09/09 04:48:18;;;;;;;3.53;3.10;;;;;;;;;;5102134;28;20218;-70
2023/09/09 04:50:45;;;;;;;3.97;2.43;;;;;;;;;;5102182;28;20200;-71
2023/09/09 04:53:12;;;;;;;5.20;2.73;;;;;;;;;;5101454;28;20199;-73
2023/09/09 04:55:39;;;;;;;5.03;3.87;;;;;;;;;;5109350;28;20220;-85
2023/09/09 04:58:10;;;;;;;3.27;2.97;;;;;;;;;;5111921;28;20196;-76
2023/09/09 05:00:36;;;;;;;3.30;3.00;;;;;;;;;;5096897;28;20219;-75
2023/09/09 05:03:03;;;;;;;3.67;3.33;;;;;;;;;;5100586;28;20591;-75
2023/09/09 05:05:32;;;;;;;4.17;3.17;;;;;;;;;;5092021;28;20204;-75
2023/09/09 05:07:58;;;;;;;5.30;3.63;;;;;;;;;;5108577;28;20211;-75
2023/09/09 05:10:27;;;;;;;5.50;3.30;;;;;;;;;;5111511;28;20234;-76
2023/09/09 05:12:53;;;;;;;3.00;2.70;;;;;;;;;;5111692;28;20203;-74
2023/09/09 05:15:20;;;;;;;3.30;3.00;;;;;;;;;;5112097;28;20207;-75
2023/09/09 05:17:48;;;;;;;5.17;3.30;;;;;;;;;;5111184;28;20195;-75
2023/09/09 05:20:15;;;;;;;5.70;2.90;;;;;;;;;;5105863;28;20204;-75
2023/09/09 05:22:43;;;;;;;5.67;2.97;;;;;;;;;;5097832;28;20188;-75
2023/09/09 05:25:10;;;;;;;9.27;2.97;;;;;;;;;;5110673;28;20745;-75
2023/09/09 05:27:36;;;;;;;7.67;2.93;;;;;;;;;;5102331;28;20217;-74
2023/09/09 05:30:03;;;;;;;6.27;3.50;;;;;;;;;;5108238;28;20194;-74
2023/09/09 05:32:30;;;;;;;4.27;3.43;;;;;;;;;;5111450;28;20206;-75
2023/09/09 05:34:57;;;;;;;4.07;2.97;;;;;;;;;;5107230;28;20196;-75
2023/09/09 05:37:26;;;;;;;4.37;3.77;;;;;;;;;;5107014;28;20206;-75
2023/09/09 05:39:54;;;;;;;3.43;3.13;;;;;;;;;;5108304;28;20203;-74
2023/09/09 05:42:21;;;;;;;3.40;2.70;;;;;;;;;;5108098;28;20219;-74
2023/09/09 05:44:48;;;;;;;3.07;2.77;;;;;;;;;;5110323;28;20276;-76
2023/09/09 05:47:15;;;;;;;3.13;2.67;;;;;;;;;;5109241;28;20204;-76
2023/09/09 05:49:42;;;;;;;3.10;2.87;;;;;;;;;;5108635;28;20203;-76
2023/09/09 05:52:09;;;;;;;4.23;2.37;;;;;;;;;;5106432;28;20207;-76
2023/09/09 05:54:36;;;;;;;4.40;3.30;;;;;;;;;;5110978;28;20199;-76
2023/09/09 05:57:04;;;;;;;5.80;2.50;;;;;;;;;;5091112;28;20198;-76
2023/09/09 05:59:31;;;;;;;3.73;2.80;;;;;;;;;;5102327;28;20196;-76
2023/09/09 06:01:58;;;;;;;5.30;3.43;;;;;;;;;;5097234;28;20215;-76
2023/09/09 06:04:24;;;;;;;4.53;2.83;;;;;;;;;;5098976;28;20586;-75
2023/09/09 06:06:51;;;;;;;7.50;2.80;;;;;;;;;;5098391;28;20208;-74
2023/09/09 06:09:18;;;;;;;5.73;3.37;;;;;;;;;;5105735;28;20201;-74
2023/09/09 06:11:45;;;;;;;2.97;2.60;;;;;;;;;;5094771;28;20225;-74
2023/09/09 06:14:13;;;;;;;8.03;2.87;;;;;;;;;;5111070;28;20201;-74
2023/09/09 06:16:40;;;;;;;4.33;2.00;;;;;;;;;;5105047;28;20263;-74
2023/09/09 06:19:07;;;;;;;3.27;1.87;;;;;;;;;;5108815;28;20585;-74
2023/09/09 06:21:33;;;;;;;4.03;2.20;;;;;;;;;;5102640;28;20289;-74
2023/09/09 06:24:00;;;;;;;5.37;2.63;;;;;;;;;;5093195;28;20211;-74
2023/09/09 06:26:31;;;;;;;4.00;1.60;;;;;;;;;;5099883;28;20206;-74
2023/09/09 06:28:58;;;;;;;11.83;2.53;;;;;;;;;;5098048;28;20196;-75
2023/09/09 06:31:26;;;;;;;4.50;1.60;;;;;;;;;;5094189;28;20211;-74
2023/09/09 06:33:53;;;;;;;2.70;1.90;;;;;;;;;;5095430;28;20651;-74
2023/09/09 06:36:21;;;;;;;2.50;2.10;;;;;;;;;;5108578;28;20200;-74
2023/09/09 06:38:48;;;;;;;9.10;2.40;;;;;;;;;;5093476;28;20253;-73
2023/09/09 06:41:15;;;;;;;7.40;2.17;;;;;;;;;;5091830;28;20297;-74
2023/09/09 06:43:42;;;;;;;4.20;2.20;;;;;;;;;;5094341;28;20230;-74
2023/09/09 06:46:09;;;;;;;2.67;2.47;;;;;;;;;;5102753;28;20631;-74
2023/09/09 06:48:37;;;;;;;3.30;2.20;;;;;;;;;;5097370;28;20196;-74
2023/09/09 06:51:04;;;;;;;7.63;1.87;;;;;;;;;;5092919;28;20212;-74
2023/09/09 06:53:31;;;;;;;1.73;1.63;;;;;;;;;;5100569;28;20616;-75
2023/09/09 06:55:58;;;;;;;4.07;1.87;;;;;;;;;;5106812;28;20242;-74
2023/09/09 06:58:25;;;;;;;6.30;2.40;;;;;;;;;;5107304;28;20199;-74
2023/09/09 07:00:52;;;;;;;3.93;1.93;;;;;;;;;;5106047;28;20260;-74
2023/09/09 07:03:19;;;;;;;2.17;1.70;;;;;;;;;;5105581;28;20204;-74
2023/09/09 07:05:47;;;;;;;3.33;2.20;;;;;;;;;;5106970;28;20196;-73
2023/09/09 07:08:14;;;;;;;4.57;2.37;;;;;;;;;;5114184;28;20199;-74
2023/09/09 07:10:49;;;;;;;10.73;1.93;;;;;;;;;;5114279;28;20292;-74
2023/09/09 07:13:16;;;;;;;2.90;1.87;;;;;;;;;;5113850;28;20660;-74
2023/09/09 07:15:44;;;;;;;2.47;1.87;;;;;;;;;;5114091;28;20221;-74
2023/09/09 07:18:11;;;;;;;7.67;2.03;;;;;;;;;;5113997;28;20612;-74
2023/09/09 07:20:38;;;;;;;4.37;2.33;;;;;;;;;;5100561;28;20655;-75
2023/09/09 07:23:06;;;;;;;2.07;1.83;;;;;;;;;;5114222;28;20242;-74
2023/09/09 07:25:34;;;;;;;3.77;2.23;;;;;;;;;;5113472;28;20203;-75
2023/09/09 07:28:01;;;;;;;2.00;1.73;;;;;;;;;;5113989;28;20200;-74
2023/09/09 07:30:27;;;;;;;9.10;2.50;;;;;;;;;;5114009;28;20199;-74
2023/09/09 07:32:54;;;;;;;3.23;2.60;;;;;;;;;;5113460;28;20242;-74
2023/09/09 07:35:21;;;;;;;3.33;2.30;;;;;;;;;;5113671;28;20627;-74
2023/09/09 07:37:49;;;;;;;2.87;1.97;;;;;;;;;;5103221;28;20213;-74
2023/09/09 07:40:17;;;;;;;2.80;2.00;;;;;;;;;;5113305;28;20200;-74
2023/09/09 07:42:44;;;;;;;2.47;1.87;;;;;;;;;;5113252;28;20600;-74
2023/09/09 07:45:11;;;;;;;3.23;2.03;;;;;;;;;;5113264;28;20204;-74
2023/09/09 07:47:38;;;;;;;8.17;2.17;;;;;;;;;;5113660;28;20214;-74
2023/09/09 07:50:06;;;;;;;6.27;1.70;;;;;;;;;;5112982;28;20288;-76
2023/09/09 07:52:33;;;;;;;5.43;1.57;;;;;;;;;;5109691;28;20199;-75
2023/09/09 07:55:00;;;;;;;6.83;1.93;;;;;;;;;;5109385;28;20199;-74
2023/09/09 07:57:28;;;;;;;5.00;2.53;;;;;;;;;;5112927;28;20196;-75
2023/09/09 07:59:54;;;;;;;2.57;1.70;;;;;;;;;;5113359;28;20203;-74
2023/09/09 08:02:21;;;;;;;7.03;1.83;;;;;;;;;;5113268;28;20227;-74
2023/09/09 08:04:49;;;;;;;3.50;2.00;;;;;;;;;;5108524;28;20678;-74
2023/09/09 08:07:15;;;;;;;2.27;1.80;;;;;;;;;;5099735;28;20208;-74
2023/09/09 08:09:42;;;;;;;2.23;1.73;;;;;;;;;;5092418;28;20200;-75
2023/09/09 08:12:09;;;;;;;2.80;1.70;;;;;;;;;;5106148;28;20223;-75
2023/09/09 08:14:37;;;;;;;3.00;1.73;;;;;;;;;;5093617;28;20204;-75
2023/09/09 08:17:05;;;;;;;6.73;1.53;;;;;;;;;;5091805;28;20205;-75
2023/09/09 08:19:32;;;;;;;1.57;1.47;;;;;;;;;;5100701;28;20195;-75
2023/09/09 08:21:58;;;;;;;2.53;1.63;;;;;;;;;;5112664;28;20249;-75
2023/09/09 08:24:25;;;;;;;2.13;1.50;;;;;;;;;;5098256;28;20196;-75
2023/09/09 08:26:52;;;;;;;1.37;1.27;;;;;;;;;;5100888;28;20211;-75
2023/09/09 08:29:19;;;;;;;1.83;1.47;;;;;;;;;;5098641;28;20204;-75
2023/09/09 08:31:48;;;;;;;2.70;1.20;;;;;;;;;;5112372;28;20204;-75
2023/09/09 08:34:15;;;;;;;10.23;3.20;;;;;;;;;;5112578;28;20260;-75
2023/09/09 08:36:42;;;;;;;9.07;2.47;;;;;;;;;;5112191;28;20211;-75
2023/09/09 08:39:11;;;;;;;4.90;1.60;;;;;;;;;;5092384;28;20270;-75
2023/09/09 08:41:47;;;;;;;5.63;1.93;;;;;;;;;;5105389;28;20223;-75
2023/09/09 08:44:19;;;;;;;3.43;1.57;;;;;;;;;;5092060;28;20677;-75
2023/09/09 08:46:45;;;;;;;3.63;1.97;;;;;;;;;;5106099;28;20202;-76
2023/09/09 08:49:15;;;;;;;1.53;1.40;;;;;;;;;;5105000;28;20265;-75
2023/09/09 08:51:47;;;;;;;4.67;1.60;;;;;;;;;;5101665;28;20243;-74
2023/09/09 08:54:14;;;;;;;2.67;1.73;;;;;;;;;;5102039;28;20207;-75
2023/09/09 08:56:41;;;;;;;3.73;1.93;;;;;;;;;;5109275;28;20677;-75
2023/09/09 08:59:09;;;;;;;5.83;1.63;;;;;;;;;;5103307;28;20192;-75
2023/09/09 09:01:36;;;;;;;1.90;1.60;;;;;;;;;;5096882;28;20204;-75
2023/09/09 09:04:03;;;;;;;3.57;1.77;;;;;;;;;;5111014;28;20203;-75
2023/09/09 09:06:31;;;;;;;9.57;2.10;;;;;;;;;;5110488;28;20204;-75
2023/09/09 09:08:58;;;;;;;4.87;1.90;;;;;;;;;;5104385;28;20204;-74
2023/09/09 09:11:25;;;;;;;2.10;1.50;;;;;;;;;;5111059;28;20234;-74
2023/09/09 09:13:53;;;;;;;2.83;1.70;;;;;;;;;;5106558;28;20199;-74
2023/09/09 09:16:20;;;;;;;3.17;1.73;;;;;;;;;;5111826;28;20199;-74
2023/09/09 09:18:46;;;;;;;5.07;2.03;;;;;;;;;;5107562;28;20195;-74
2023/09/09 09:21:13;;;;;;;4.30;2.13;;;;;;;;;;5096677;28;20214;-75
2023/09/09 09:23:44;;;;;;;4.83;1.60;;;;;;;;;;5112342;28;20227;-75
2023/09/09 09:26:24;;;;;;;5.30;1.70;;;;;;;;;;5097952;28;20199;-75
2023/09/09 09:28:53;;;;;;;3.97;1.60;;;;;;;;;;5111718;28;20210;-75
2023/09/09 09:31:20;;;;;;;7.47;2.33;;;;;;;;;;5095033;28;20197;-74
2023/09/09 09:33:47;;;;;;;1.40;1.25;;;;;;;;;;5111617;28;20219;-74
2023/09/09 09:36:17;;;;;;;1.47;1.37;;;;;;;;;;5111321;28;20290;-74
2023/09/09 09:38:45;;;;;;;1.60;1.50;;;;;;;;;;5111409;28;20277;-75
2023/09/09 09:41:12;;;;;;;3.97;1.97;;;;;;;;;;5111693;28;20643;-74
2023/09/09 09:43:39;;;;;;;5.27;2.13;;;;;;;;;;5098896;28;20236;-74
2023/09/09 09:46:15;;;;;;;2.13;1.73;;;;;;;;;;5103665;28;20755;-74
2023/09/09 09:48:42;;;;;;;4.18;1.60;;;;;;;;;;5103577;28;20685;-75
2023/09/09 09:51:09;;;;;;;2.95;1.52;;;;;;;;;;5110948;28;20207;-74
2023/09/09 09:53:39;;;;;;;4.30;1.35;;;;;;;;;;5111051;28;20202;-74
2023/09/09 09:56:07;;;;;;;2.30;1.83;;;;;;;;;;5111090;28;20294;-74
2023/09/09 09:58:37;;;;;;;2.00;1.80;;;;;;;;;;5111254;28;20206;-74
2023/09/09 10:01:05;;;;;;;2.57;1.80;;;;;;;;;;5105185;28;20633;-74
2023/09/09 10:03:41;;;;;;;1.60;1.50;;;;;;;;;;5102546;28;20234;-74
2023/09/09 10:06:09;;;;;;;1.95;1.60;;;;;;;;;;5109438;28;20199;-74
2023/09/09 10:08:39;;;;;;;4.68;1.40;;;;;;;;;;5105611;28;20207;-74
2023/09/09 10:11:10;;;;;;;4.10;1.85;;;;;;;;;;5103567;28;20319;-75
2023/09/09 10:13:43;;;;;;;1.85;1.63;;;;;;;;;;5111145;28;20206;-74
2023/09/09 10:16:11;;;;;;;1.70;1.52;;;;;;;;;;5110760;28;20195;-74
2023/09/09 10:18:38;;;;;;;3.15;1.67;;;;;;;;;;5108452;28;20199;-74
2023/09/09 10:21:07;;;;;;;5.00;1.60;;;;;;;;;;5096293;28;20195;-74
2023/09/09 10:23:34;;;;;;;1.98;1.23;;;;;;;;;;5108612;28;20283;-75
2023/09/09 10:26:01;;;;;;;1.77;1.35;;;;;;;;;;5096626;28;20210;-75
2023/09/09 10:28:30;;;;;;;1.88;1.55;;;;;;;;;;5110744;28;20253;-74
2023/09/09 10:30:57;;;;;;;2.00;1.30;;;;;;;;;;5110632;28;20693;-74
2023/09/09 10:33:23;;;;;;;4.15;2.10;;;;;;;;;;5110891;28;20199;-74
2023/09/09 10:35:50;;;;;;;2.05;1.60;;;;;;;;;;5105637;28;20200;-74
2023/09/09 10:38:17;;;;;;;2.08;1.58;;;;;;;;;;5094282;28;20253;-74
2023/09/09 10:40:46;;;;;;;2.72;1.67;;;;;;;;;;5094201;28;20211;-75
2023/09/09 10:43:13;;;;;;;7.85;1.77;;;;;;;;;;5111988;28;20219;-75
2023/09/09 10:45:43;;;;;;;10.85;1.85;;;;;;;;;;5114707;28;20203;-74
2023/09/09 10:48:11;;;;;;;1.88;1.23;;;;;;;;;;5114744;28;20195;-74
2023/09/09 10:50:40;;;;;;;2.70;1.42;;;;;;;;;;5112749;28;20285;-74
2023/09/09 10:53:17;;;;;;;4.22;1.60;;;;;;;;;;5102180;28;20635;-74
2023/09/09 10:55:44;;;;;;;3.65;1.83;;;;;;;;;;5114654;28;20621;-74
2023/09/09 10:58:15;;;;;;;1.75;1.60;;;;;;;;;;5112706;28;20686;-74
2023/09/09 11:00:46;;;;;;;5.38;1.52;;;;;;;;;;5112755;28;20286;-74
2023/09/09 11:03:15;;;;;;;1.95;1.55;;;;;;;;;;5114446;28;20615;-74
2023/09/09 11:06:06;;;;;;;3.53;1.83;;;;;;;;;;5104647;28;20566;-74
2023/09/09 11:08:44;;;;;;;3.40;1.60;;;;;;;;;;5114183;28;20284;-74
2023/09/09 11:11:13;;;;;;;3.33;1.98;;;;;;;;;;5101052;28;20234;-74
2023/09/09 11:13:46;;;;;;;4.60;2.55;;;;;;;;;;5101950;28;20233;-74
2023/09/09 11:16:32;;;;;;;5.10;1.92;;;;;;;;;;5106821;28;20210;-74
2023/09/09 11:19:00;;;;;;;2.28;1.63;;;;;;;;;;5096707;28;20632;-74
2023/09/09 11:21:27;;;;;;;2.72;1.60;;;;;;;;;;5096048;28;20204;-74
2023/09/09 11:23:54;;;;;;;3.15;1.70;;;;;;;;;;5106672;28;20227;-74
2023/09/09 11:26:21;;;;;;;1.33;1.23;;;;;;;;;;5106627;28;20207;-74
2023/09/09 11:28:49;;;;;;;2.67;1.80;;;;;;;;;;5094478;28;20203;-74
2023/09/09 11:31:16;;;;;;;3.15;1.40;;;;;;;;;;5094737;28;20208;-74
2023/09/09 11:33:44;;;;;;;2.35;1.60;;;;;;;;;;5107692;28;20252;-74
2023/09/09 11:36:11;;;;;;;1.80;1.63;;;;;;;;;;5101954;28;20726;-74
2023/09/09 11:38:39;;;;;;;1.50;1.40;;;;;;;;;;5094525;28;20196;-74
2023/09/09 11:41:06;;;;;;;2.63;1.52;;;;;;;;;;5101334;28;20204;-74
2023/09/09 11:43:33;;;;;;;4.03;1.70;;;;;;;;;;5092397;28;20220;-74
2023/09/09 11:46:00;;;;;;;3.47;1.88;;;;;;;;;;5092152;28;20219;-74
2023/09/09 11:48:27;;;;;;;1.90;1.80;;;;;;;;;;5092207;28;20231;-74
2023/09/09 11:50:55;;;;;;;2.10;1.70;;;;;;;;;;5091298;28;20204;-74
2023/09/09 11:53:23;;;;;;;1.67;1.58;;;;;;;;;;5098416;28;20286;-74
2023/09/09 11:55:53;;;;;;;2.05;1.52;;;;;;;;;;5112450;28;20293;-74
2023/09/09 11:58:20;;;;;;;5.25;1.73;;;;;;;;;;5111828;28;20249;-74
2023/09/09 12:00:47;;;;;;;2.45;1.40;;;;;;;;;;5097902;28;20253;-74
2023/09/09 12:03:20;;;;;;;1.92;1.83;;;;;;;;;;5091656;28;20253;-74
2023/09/09 12:05:47;;;;;;;1.60;1.50;;;;;;;;;;5091886;28;20258;-74
2023/09/09 12:08:15;;;;;;;5.25;2.45;;;;;;;;;;5100135;28;20211;-74
2023/09/09 12:10:42;;;;;;;3.60;1.55;;;;;;;;;;5098619;28;20236;-74
2023/09/09 12:13:09;;;;;;;4.00;2.03;;;;;;;;;;5099487;28;20197;-74
2023/09/09 12:15:36;;;;;;;2.65;1.77;;;;;;;;;;5096970;28;20204;-74
2023/09/09 12:18:10;;;;;;;3.78;1.25;;;;;;;;;;5096250;28;20726;-74
2023/09/09 12:21:03;;;;;;;3.20;1.45;;;;;;;;;;5111454;28;20207;-74
2023/09/09 12:23:32;;;;;;;2.88;1.65;;;;;;;;;;5095419;28;20232;-74
2023/09/09 12:26:09;;;;;;;3.50;1.85;;;;;;;;;;5097180;28;20231;-74
2023/09/09 12:28:36;;;;;;;2.20;1.80;;;;;;;;;;5098337;28;20594;-74
2023/09/09 12:31:03;;;;;;;1.67;1.58;;;;;;;;;;5096241;28;20206;-74
2023/09/09 12:33:38;;;;;;;2.10;1.70;;;;;;;;;;5099086;28;20701;-74
2023/09/09 12:36:06;;;;;;;2.83;1.60;;;;;;;;;;5100131;28;20206;-74
2023/09/09 12:38:39;;;;;;;2.97;1.73;;;;;;;;;;5104255;28;20207;-74
2023/09/09 12:41:07;;;;;;;3.97;1.95;;;;;;;;;;5107705;28;20788;-74
2023/09/09 12:43:35;;;;;;;5.32;2.00;;;;;;;;;;5100728;28;20223;-74
2023/09/09 12:46:06;;;;;;;2.15;1.67;;;;;;;;;;5091858;28;20211;-74
2023/09/09 12:48:33;;;;;;;2.97;2.45;;;;;;;;;;5096194;28;20210;-73
2023/09/09 12:51:00;;;;;;;3.90;2.47;;;;;;;;;;5112332;28;20207;-73
2023/09/09 12:53:27;;;;;;;2.60;2.40;;;;;;;;;;5111807;28;20290;-74
2023/09/09 12:55:55;;;;;;;5.18;4.75;;;;;;;;;;5111832;28;20206;-74
2023/09/09 12:58:22;;;;;;;8.60;3.50;;;;;;;;;;5111842;28;20214;-73
2023/09/09 13:00:49;;;;;;;4.68;4.07;;;;;;;;;;5100857;28;20204;-73
2023/09/09 13:03:15;;;;;;;6.85;6.13;;;;;;;;;;5097326;28;20609;-74
2023/09/09 13:05:43;;;;;;;8.35;5.93;;;;;;;;;;5098925;28;20670;-73
2023/09/09 13:08:09;;;;;;;5.95;3.33;;;;;;;;;;5099565;28;20208;-74
2023/09/09 13:10:36;;;;;;;3.22;2.97;;;;;;;;;;5098988;28;20221;-74
2023/09/09 13:13:04;;;;;;;8.25;3.78;;;;;;;;;;5097566;28;20199;-74
2023/09/09 13:15:34;;;;;;;5.07;3.35;;;;;;;;;;5100532;28;20712;-73
2023/09/09 13:18:00;;;;;;;4.82;3.35;;;;;;;;;;5109713;28;20200;-74
2023/09/09 13:20:27;;;;;;;5.60;2.58;;;;;;;;;;5099313;28;20709;-74
2023/09/09 13:22:54;;;;;;;3.97;2.78;;;;;;;;;;5091025;28;20196;-74
2023/09/09 13:25:21;;;;;;;4.38;2.00;;;;;;;;;;5104628;28;20615;-74
2023/09/09 13:27:48;;;;;;;3.17;2.30;;;;;;;;;;5105478;28;20201;-74
2023/09/09 13:30:16;;;;;;;3.28;1.88;;;;;;;;;;5091314;28;20570;-73
2023/09/09 13:32:43;;;;;;;2.70;1.55;;;;;;;;;;5098701;28;20233;-74
2023/09/09 13:35:10;;;;;;;5.80;1.80;;;;;;;;;;5111021;28;20204;-73
2023/09/09 13:37:37;;;;;;;2.97;1.83;;;;;;;;;;5111610;28;20200;-74
2023/09/09 13:40:04;;;;;;;3.33;2.35;;;;;;;;;;5097834;28;20262;-74
2023/09/09 13:42:33;;;;;;;4.47;2.25;;;;;;;;;;5103093;28;20203;-74
2023/09/09 13:44:59;;;;;;;4.28;1.77;;;;;;;;;;5090634;28;20288;-74
2023/09/09 13:47:28;;;;;;;2.85;1.70;;;;;;;;;;5101043;28;20211;-74
2023/09/09 13:50:01;;;;;;;3.03;1.98;;;;;;;;;;5103213;28;20200;-74
2023/09/09 13:52:28;;;;;;;1.88;1.52;;;;;;;;;;5106383;28;20203;-74
2023/09/09 13:54:55;;;;;;;3.20;1.77;;;;;;;;;;5102475;28;20665;-74
2023/09/09 13:57:21;;;;;;;2.10;1.52;;;;;;;;;;5105234;28;20207;-74
2023/09/09 13:59:48;;;;;;;1.70;1.60;;;;;;;;;;5103291;28;20206;-74
2023/09/09 14:02:15;;;;;;;4.78;1.98;;;;;;;;;;5104389;28;20220;-74
2023/09/09 14:04:43;;;;;;;1.92;1.80;;;;;;;;;;5103156;28;20655;-74
2023/09/09 14:07:10;;;;;;;4.68;2.05;;;;;;;;;;5102667;28;20204;-74
2023/09/09 14:09:36;;;;;;;3.83;1.80;;;;;;;;;;5107465;28;20276;-74
2023/09/09 14:12:04;;;;;;;2.22;1.80;;;;;;;;;;5110337;28;20223;-74
2023/09/09 14:14:33;;;;;;;1.60;1.50;;;;;;;;;;5115051;28;20558;-74
2023/09/09 14:17:00;;;;;;;2.33;1.85;;;;;;;;;;5097088;28;20630;-74
2023/09/09 14:19:27;;;;;;;5.03;1.58;;;;;;;;;;5094863;28;20203;-74
2023/09/09 14:21:55;;;;;;;2.22;2.00;;;;;;;;;;5094637;28;20226;-74
2023/09/09 14:24:22;;;;;;;2.33;1.60;;;;;;;;;;5108123;28;20702;-74
2023/09/09 14:26:49;;;;;;;2.70;1.55;;;;;;;;;;5095039;28;20203;-74
2023/09/09 14:29:16;;;;;;;3.83;1.70;;;;;;;;;;5108446;28;20206;-74
2023/09/09 14:31:43;;;;;;;2.20;1.63;;;;;;;;;;5103525;28;20202;-74
2023/09/09 14:34:10;;;;;;;5.85;2.40;;;;;;;;;;5108868;28;20273;-74
2023/09/09 14:36:36;;;;;;;2.22;1.95;;;;;;;;;;5111910;28;20203;-74
2023/09/09 14:39:05;;;;;;;3.60;1.70;;;;;;;;;;5095268;28;20204;-74
2023/09/09 14:41:33;;;;;;;2.13;1.88;;;;;;;;;;5095595;28;20196;-74
2023/09/09 14:44:01;;;;;;;2.30;1.40;;;;;;;;;;5095607;28;20278;-74
2023/09/09 14:46:28;;;;;;;3.25;1.92;;;;;;;;;;5095996;28;20718;-74